sensor_id;sensor_type;location;lat;lon;timestamp;pressure;altitude;pressure_sealevel;temperature;humidity
35507;BME280;36461;52.018;21.036;2023-03-25T00:00:14;99139.20;;;10.62;88.64
35507;BME280;36461;52.018;21.036;2023-03-25T00:03:02;99143.50;;;10.56;88.61
35507;BME280;36461;52.018;21.036;2023-03-25T00:05:30;99138.17;;;10.52;88.62
35507;BME280;36461;52.018;21.036;2023-03-25T00:07:57;99128.61;;;10.47;88.65
35507;BME280;36461;52.018;21.036;2023-03-25T00:10:23;99125.77;;;10.41;88.86
35507;BME280;36461;52.018;21.036;2023-03-25T00:12:50;99121.72;;;10.36;88.92
35507;BME280;36461;52.018;21.036;2023-03-25T00:15:17;99121.53;;;10.32;89.05
35507;BME280;36461;52.018;21.036;2023-03-25T00:17:44;99121.99;;;10.27;89.06
35507;BME280;36461;52.018;21.036;2023-03-25T00:20:11;99122.96;;;10.21;88.94
35507;BME280;36461;52.018;21.036;2023-03-25T00:22:40;99123.57;;;10.12;89.09
35507;BME280;36461;52.018;21.036;2023-03-25T00:25:10;99128.58;;;10.05;89.07
35507;BME280;36461;52.018;21.036;2023-03-25T00:27:38;99123.11;;;10.01;89.24
35507;BME280;36461;52.018;21.036;2023-03-25T00:30:06;99116.16;;;9.98;89.38
35507;BME280;36461;52.018;21.036;2023-03-25T00:32:34;99118.35;;;9.96;89.62
35507;BME280;36461;52.018;21.036;2023-03-25T00:35:01;99123.45;;;9.94;89.65
35507;BME280;36461;52.018;21.036;2023-03-25T00:37:27;99126.78;;;9.93;89.81
35507;BME280;36461;52.018;21.036;2023-03-25T00:39:55;99118.96;;;9.94;90.02
35507;BME280;36461;52.018;21.036;2023-03-25T00:42:22;99111.80;;;9.96;90.10
35507;BME280;36461;52.018;21.036;2023-03-25T00:44:52;99116.23;;;9.97;90.31
35507;BME280;36461;52.018;21.036;2023-03-25T00:47:21;99120.89;;;9.97;90.24
35507;BME280;36461;52.018;21.036;2023-03-25T00:49:48;99120.65;;;9.98;90.22
35507;BME280;36461;52.018;21.036;2023-03-25T00:52:17;99118.04;;;9.99;90.33
35507;BME280;36461;52.018;21.036;2023-03-25T00:54:44;99121.89;;;9.98;90.19
35507;BME280;36461;52.018;21.036;2023-03-25T00:57:12;99128.64;;;9.97;90.33
35507;BME280;36461;52.018;21.036;2023-03-25T00:59:39;99134.54;;;9.97;90.23
35507;BME280;36461;52.018;21.036;2023-03-25T01:02:05;99132.48;;;9.97;90.31
35507;BME280;36461;52.018;21.036;2023-03-25T01:04:33;99128.81;;;9.98;90.40
35507;BME280;36461;52.018;21.036;2023-03-25T01:07:00;99121.71;;;9.98;90.06
35507;BME280;36461;52.018;21.036;2023-03-25T01:09:28;99112.85;;;9.95;90.12
35507;BME280;36461;52.018;21.036;2023-03-25T01:11:56;99114.46;;;9.94;90.24
35507;BME280;36461;52.018;21.036;2023-03-25T01:14:23;99115.13;;;9.94;90.34
35507;BME280;36461;52.018;21.036;2023-03-25T01:16:53;99112.95;;;9.93;90.10
35507;BME280;36461;52.018;21.036;2023-03-25T01:19:21;99113.73;;;9.91;90.08
35507;BME280;36461;52.018;21.036;2023-03-25T01:21:48;99118.20;;;9.88;89.99
35507;BME280;36461;52.018;21.036;2023-03-25T01:24:16;99114.84;;;9.83;89.93
35507;BME280;36461;52.018;21.036;2023-03-25T01:26:43;99107.27;;;9.75;89.67
35507;BME280;36461;52.018;21.036;2023-03-25T01:29:13;99100.98;;;9.66;89.48
35507;BME280;36461;52.018;21.036;2023-03-25T01:31:40;99098.15;;;9.57;89.64
35507;BME280;36461;52.018;21.036;2023-03-25T01:34:07;99097.86;;;9.48;89.48
35507;BME280;36461;52.018;21.036;2023-03-25T01:36:34;99105.37;;;9.39;89.55
35507;BME280;36461;52.018;21.036;2023-03-25T01:39:14;99102.43;;;9.29;89.53
35507;BME280;36461;52.018;21.036;2023-03-25T01:41:44;99106.00;;;9.18;89.57
35507;BME280;36461;52.018;21.036;2023-03-25T01:46:51;99109.27;;;9.00;89.80
35507;BME280;36461;52.018;21.036;2023-03-25T01:49:28;99111.45;;;8.94;90.16
35507;BME280;36461;52.018;21.036;2023-03-25T01:52:02;99115.05;;;8.87;90.12
35507;BME280;36461;52.018;21.036;2023-03-25T01:54:31;99117.27;;;8.80;90.08
35507;BME280;36461;52.018;21.036;2023-03-25T01:56:59;99116.02;;;8.73;90.33
35507;BME280;36461;52.018;21.036;2023-03-25T01:59:27;99123.54;;;8.67;90.44
35507;BME280;36461;52.018;21.036;2023-03-25T02:01:55;99126.02;;;8.62;90.47
35507;BME280;36461;52.018;21.036;2023-03-25T02:04:44;99125.06;;;8.56;90.60
35507;BME280;36461;52.018;21.036;2023-03-25T02:07:17;99124.33;;;8.49;90.53
35507;BME280;36461;52.018;21.036;2023-03-25T02:09:45;99126.30;;;8.42;90.74
35507;BME280;36461;52.018;21.036;2023-03-25T02:12:12;99116.34;;;8.37;90.76
35507;BME280;36461;52.018;21.036;2023-03-25T02:14:38;99110.67;;;8.33;90.86
35507;BME280;36461;52.018;21.036;2023-03-25T02:28:38;99095.52;;;8.08;91.18
35507;BME280;36461;52.018;21.036;2023-03-25T02:47:42;99110.23;;;7.74;91.91
35507;BME280;36461;52.018;21.036;2023-03-25T02:50:16;99110.79;;;7.73;92.05
35507;BME280;36461;52.018;21.036;2023-03-25T02:52:50;99110.19;;;7.70;92.04
35507;BME280;36461;52.018;21.036;2023-03-25T02:55:20;99105.48;;;7.68;92.30
35507;BME280;36461;52.018;21.036;2023-03-25T02:57:50;99099.15;;;7.66;92.37
35507;BME280;36461;52.018;21.036;2023-03-25T03:00:23;99100.71;;;7.66;92.50
35507;BME280;36461;52.018;21.036;2023-03-25T03:02:55;99104.70;;;7.66;92.56
35507;BME280;36461;52.018;21.036;2023-03-25T03:05:36;99109.77;;;7.64;92.30
35507;BME280;36461;52.018;21.036;2023-03-25T03:22:44;99129.44;;;7.41;92.45
35507;BME280;36461;52.018;21.036;2023-03-25T03:28:04;99126.15;;;7.29;92.62
35507;BME280;36461;52.018;21.036;2023-03-25T03:33:13;99130.15;;;7.22;92.65
35507;BME280;36461;52.018;21.036;2023-03-25T03:35:47;99128.34;;;7.21;92.71
35507;BME280;36461;52.018;21.036;2023-03-25T03:38:20;99122.42;;;7.18;92.78
35507;BME280;36461;52.018;21.036;2023-03-25T03:41:00;99119.26;;;7.15;92.86
35507;BME280;36461;52.018;21.036;2023-03-25T03:43:35;99118.04;;;7.11;92.93
35507;BME280;36461;52.018;21.036;2023-03-25T03:46:08;99117.64;;;7.08;92.86
35507;BME280;36461;52.018;21.036;2023-03-25T03:48:41;99117.14;;;7.03;92.88
35507;BME280;36461;52.018;21.036;2023-03-25T03:51:16;99122.80;;;6.99;92.78
35507;BME280;36461;52.018;21.036;2023-03-25T03:53:51;99131.91;;;6.95;92.78
35507;BME280;36461;52.018;21.036;2023-03-25T03:56:32;99132.94;;;6.90;92.73
35507;BME280;36461;52.018;21.036;2023-03-25T03:59:14;99129.42;;;6.87;92.87
35507;BME280;36461;52.018;21.036;2023-03-25T04:01:50;99130.62;;;6.83;92.97
35507;BME280;36461;52.018;21.036;2023-03-25T04:04:21;99140.89;;;6.79;92.73
35507;BME280;36461;52.018;21.036;2023-03-25T04:07:02;99140.04;;;6.75;92.88
35507;BME280;36461;52.018;21.036;2023-03-25T04:12:24;99139.20;;;6.74;93.18
35507;BME280;36461;52.018;21.036;2023-03-25T04:14:56;99138.75;;;6.72;93.16
35507;BME280;36461;52.018;21.036;2023-03-25T04:17:25;99142.78;;;6.70;93.12
35507;BME280;36461;52.018;21.036;2023-03-25T04:19:55;99150.99;;;6.66;93.07
35507;BME280;36461;52.018;21.036;2023-03-25T04:22:22;99152.50;;;6.62;92.86
35507;BME280;36461;52.018;21.036;2023-03-25T04:24:50;99155.48;;;6.61;93.00
35507;BME280;36461;52.018;21.036;2023-03-25T04:27:17;99158.83;;;6.59;92.93
35507;BME280;36461;52.018;21.036;2023-03-25T04:29:45;99164.05;;;6.57;92.87
35507;BME280;36461;52.018;21.036;2023-03-25T04:32:13;99164.67;;;6.54;92.74
35507;BME280;36461;52.018;21.036;2023-03-25T04:34:41;99156.16;;;6.51;92.99
35507;BME280;36461;52.018;21.036;2023-03-25T04:37:08;99153.34;;;6.53;93.34
35507;BME280;36461;52.018;21.036;2023-03-25T04:39:34;99157.27;;;6.54;93.22
35507;BME280;36461;52.018;21.036;2023-03-25T04:42:01;99157.16;;;6.57;93.66
35507;BME280;36461;52.018;21.036;2023-03-25T04:44:29;99156.86;;;6.61;93.47
35507;BME280;36461;52.018;21.036;2023-03-25T04:47:00;99154.15;;;6.65;93.60
35507;BME280;36461;52.018;21.036;2023-03-25T04:49:28;99147.25;;;6.70;93.55
35507;BME280;36461;52.018;21.036;2023-03-25T04:51:55;99143.30;;;6.74;93.59
35507;BME280;36461;52.018;21.036;2023-03-25T04:54:24;99141.50;;;6.77;93.46
35507;BME280;36461;52.018;21.036;2023-03-25T04:56:51;99145.21;;;6.79;93.43
35507;BME280;36461;52.018;21.036;2023-03-25T04:59:19;99145.56;;;6.83;93.39
35507;BME280;36461;52.018;21.036;2023-03-25T05:01:47;99149.96;;;6.90;93.64
35507;BME280;36461;52.018;21.036;2023-03-25T05:04:16;99154.36;;;6.97;93.53
35507;BME280;36461;52.018;21.036;2023-03-25T05:06:45;99155.15;;;7.03;93.60
35507;BME280;36461;52.018;21.036;2023-03-25T05:09:15;99160.96;;;7.09;93.49
35507;BME280;36461;52.018;21.036;2023-03-25T05:11:42;99164.52;;;7.14;93.23
35507;BME280;36461;52.018;21.036;2023-03-25T05:14:10;99167.90;;;7.21;93.19
35507;BME280;36461;52.018;21.036;2023-03-25T05:16:37;99172.23;;;7.29;93.23
35507;BME280;36461;52.018;21.036;2023-03-25T05:19:05;99171.09;;;7.37;93.24
35507;BME280;36461;52.018;21.036;2023-03-25T05:21:37;99169.64;;;7.43;93.05
35507;BME280;36461;52.018;21.036;2023-03-25T05:24:06;99164.18;;;7.46;92.99
35507;BME280;36461;52.018;21.036;2023-03-25T05:26:37;99162.70;;;7.49;92.99
35507;BME280;36461;52.018;21.036;2023-03-25T05:29:10;99168.21;;;7.53;92.95
35507;BME280;36461;52.018;21.036;2023-03-25T05:31:41;99173.52;;;7.58;92.86
35507;BME280;36461;52.018;21.036;2023-03-25T05:34:11;99178.63;;;7.64;92.94
35507;BME280;36461;52.018;21.036;2023-03-25T05:36:39;99180.66;;;7.74;93.00
35507;BME280;36461;52.018;21.036;2023-03-25T05:39:07;99181.13;;;7.84;93.07
35507;BME280;36461;52.018;21.036;2023-03-25T05:41:34;99181.23;;;7.94;93.05
35507;BME280;36461;52.018;21.036;2023-03-25T05:44:06;99182.97;;;8.02;92.75
35507;BME280;36461;52.018;21.036;2023-03-25T05:46:33;99178.48;;;8.11;92.83
35507;BME280;36461;52.018;21.036;2023-03-25T05:48:59;99177.77;;;8.19;92.82
35507;BME280;36461;52.018;21.036;2023-03-25T05:51:29;99178.81;;;8.24;92.52
35507;BME280;36461;52.018;21.036;2023-03-25T05:53:59;99180.95;;;8.26;92.17
35507;BME280;36461;52.018;21.036;2023-03-25T05:56:26;99178.49;;;8.27;92.18
35507;BME280;36461;52.018;21.036;2023-03-25T06:06:33;99169.89;;;8.56;92.17
35507;BME280;36461;52.018;21.036;2023-03-25T06:09:02;99172.36;;;8.63;92.09
35507;BME280;36461;52.018;21.036;2023-03-25T06:11:31;99172.51;;;8.71;91.90
35507;BME280;36461;52.018;21.036;2023-03-25T06:14:06;99174.80;;;8.78;91.83
35507;BME280;36461;52.018;21.036;2023-03-25T06:16:35;99176.11;;;8.83;91.76
35507;BME280;36461;52.018;21.036;2023-03-25T06:19:03;99178.11;;;8.89;91.80
35507;BME280;36461;52.018;21.036;2023-03-25T06:21:32;99178.91;;;8.98;91.82
35507;BME280;36461;52.018;21.036;2023-03-25T06:24:01;99179.17;;;9.08;91.76
35507;BME280;36461;52.018;21.036;2023-03-25T06:26:30;99176.98;;;9.17;91.93
35507;BME280;36461;52.018;21.036;2023-03-25T06:29:00;99175.41;;;9.29;92.13
35507;BME280;36461;52.018;21.036;2023-03-25T06:31:29;99178.84;;;9.41;91.84
35507;BME280;36461;52.018;21.036;2023-03-25T06:34:01;99172.96;;;9.52;91.88
35507;BME280;36461;52.018;21.036;2023-03-25T06:36:30;99173.78;;;9.65;92.22
35507;BME280;36461;52.018;21.036;2023-03-25T06:38:58;99175.89;;;9.82;92.07
35507;BME280;36461;52.018;21.036;2023-03-25T06:41:27;99179.25;;;9.98;91.93
35507;BME280;36461;52.018;21.036;2023-03-25T06:44:10;99177.23;;;10.15;91.73
35507;BME280;36461;52.018;21.036;2023-03-25T06:46:57;99176.24;;;10.24;91.32
35507;BME280;36461;52.018;21.036;2023-03-25T06:49:30;99177.63;;;10.31;90.95
35507;BME280;36461;52.018;21.036;2023-03-25T06:51:59;99179.86;;;10.38;90.90
35507;BME280;36461;52.018;21.036;2023-03-25T06:54:27;99182.45;;;10.42;90.48
35507;BME280;36461;52.018;21.036;2023-03-25T06:56:55;99190.14;;;10.44;90.27
35507;BME280;36461;52.018;21.036;2023-03-25T06:59:23;99193.02;;;10.48;90.31
35507;BME280;36461;52.018;21.036;2023-03-25T07:01:52;99185.48;;;10.57;90.26
35507;BME280;36461;52.018;21.036;2023-03-25T07:04:20;99181.05;;;10.66;90.08
35507;BME280;36461;52.018;21.036;2023-03-25T07:06:48;99176.98;;;10.75;90.06
35507;BME280;36461;52.018;21.036;2023-03-25T07:09:16;99180.58;;;10.85;90.03
35507;BME280;36461;52.018;21.036;2023-03-25T07:11:44;99183.12;;;10.96;89.81
35507;BME280;36461;52.018;21.036;2023-03-25T07:14:12;99183.23;;;11.07;89.48
35507;BME280;36461;52.018;21.036;2023-03-25T07:16:40;99183.55;;;11.17;89.32
35507;BME280;36461;52.018;21.036;2023-03-25T07:19:09;99180.15;;;11.26;89.03
35507;BME280;36461;52.018;21.036;2023-03-25T07:21:37;99182.23;;;11.29;88.50
35507;BME280;36461;52.018;21.036;2023-03-25T07:24:05;99181.65;;;11.27;87.89
35507;BME280;36461;52.018;21.036;2023-03-25T07:26:33;99179.28;;;11.22;87.71
35507;BME280;36461;52.018;21.036;2023-03-25T07:29:02;99176.31;;;11.27;87.64
35507;BME280;36461;52.018;21.036;2023-03-25T07:31:30;99176.52;;;11.32;87.80
35507;BME280;36461;52.018;21.036;2023-03-25T07:33:59;99178.02;;;11.33;87.47
35507;BME280;36461;52.018;21.036;2023-03-25T07:36:27;99181.64;;;11.34;87.02
35507;BME280;36461;52.018;21.036;2023-03-25T07:38:55;99180.44;;;11.40;87.24
35507;BME280;36461;52.018;21.036;2023-03-25T07:41:24;99177.48;;;11.47;86.82
35507;BME280;36461;52.018;21.036;2023-03-25T07:44:03;99170.50;;;11.60;87.31
35507;BME280;36461;52.018;21.036;2023-03-25T07:46:32;99163.09;;;11.71;87.03
35507;BME280;36461;52.018;21.036;2023-03-25T07:49:00;99160.72;;;11.83;86.83
35507;BME280;36461;52.018;21.036;2023-03-25T07:51:29;99156.35;;;11.86;86.51
35507;BME280;36461;52.018;21.036;2023-03-25T07:53:57;99155.98;;;11.84;86.18
35507;BME280;36461;52.018;21.036;2023-03-25T07:56:33;99156.59;;;11.85;85.85
35507;BME280;36461;52.018;21.036;2023-03-25T07:59:02;99157.04;;;11.93;85.75
35507;BME280;36461;52.018;21.036;2023-03-25T08:01:31;99159.30;;;12.02;85.56
35507;BME280;36461;52.018;21.036;2023-03-25T08:03:59;99158.96;;;12.08;85.57
35507;BME280;36461;52.018;21.036;2023-03-25T08:06:27;99154.41;;;12.14;85.38
35507;BME280;36461;52.018;21.036;2023-03-25T08:08:56;99155.90;;;12.13;84.97
35507;BME280;36461;52.018;21.036;2023-03-25T08:11:24;99154.70;;;12.07;84.78
35507;BME280;36461;52.018;21.036;2023-03-25T08:13:52;99156.94;;;11.98;84.74
35507;BME280;36461;52.018;21.036;2023-03-25T08:16:20;99157.39;;;11.92;84.75
35507;BME280;36461;52.018;21.036;2023-03-25T08:18:48;99153.99;;;11.88;84.88
35507;BME280;36461;52.018;21.036;2023-03-25T08:21:20;99155.68;;;11.83;85.13
35507;BME280;36461;52.018;21.036;2023-03-25T08:23:55;99150.88;;;11.76;85.02
35507;BME280;36461;52.018;21.036;2023-03-25T08:26:30;99152.98;;;11.72;85.15
35507;BME280;36461;52.018;21.036;2023-03-25T08:29:01;99163.09;;;11.71;85.58
35507;BME280;36461;52.018;21.036;2023-03-25T08:31:31;99166.89;;;11.75;85.50
35507;BME280;36461;52.018;21.036;2023-03-25T08:34:01;99156.58;;;11.79;85.33
35507;BME280;36461;52.018;21.036;2023-03-25T08:36:29;99158.61;;;11.83;84.98
35507;BME280;36461;52.018;21.036;2023-03-25T08:38:57;99161.42;;;11.83;84.68
35507;BME280;36461;52.018;21.036;2023-03-25T08:41:25;99163.15;;;11.83;84.62
35507;BME280;36461;52.018;21.036;2023-03-25T08:43:53;99165.25;;;11.86;84.75
35507;BME280;36461;52.018;21.036;2023-03-25T08:46:21;99169.26;;;11.85;84.40
35507;BME280;36461;52.018;21.036;2023-03-25T08:48:50;99170.55;;;11.86;84.23
35507;BME280;36461;52.018;21.036;2023-03-25T08:51:18;99172.79;;;11.90;83.99
35507;BME280;36461;52.018;21.036;2023-03-25T08:53:46;99177.40;;;11.95;83.84
35507;BME280;36461;52.018;21.036;2023-03-25T08:56:14;99176.22;;;12.04;83.94
35507;BME280;36461;52.018;21.036;2023-03-25T08:58:42;99170.16;;;12.15;83.85
35507;BME280;36461;52.018;21.036;2023-03-25T09:01:11;99163.39;;;12.24;83.33
35507;BME280;36461;52.018;21.036;2023-03-25T09:03:39;99159.06;;;12.27;82.87
35507;BME280;36461;52.018;21.036;2023-03-25T09:06:08;99158.41;;;12.32;82.67
35507;BME280;36461;52.018;21.036;2023-03-25T09:08:36;99157.27;;;12.43;82.63
35507;BME280;36461;52.018;21.036;2023-03-25T09:11:04;99151.89;;;12.52;82.01
35507;BME280;36461;52.018;21.036;2023-03-25T09:13:33;99150.53;;;12.57;81.54
35507;BME280;36461;52.018;21.036;2023-03-25T09:16:01;99150.90;;;12.59;81.15
35507;BME280;36461;52.018;21.036;2023-03-25T09:18:29;99148.51;;;12.62;80.69
35507;BME280;36461;52.018;21.036;2023-03-25T09:20:59;99147.89;;;12.66;80.15
35507;BME280;36461;52.018;21.036;2023-03-25T09:23:27;99146.08;;;12.76;79.84
35507;BME280;36461;52.018;21.036;2023-03-25T09:26:00;99148.65;;;12.88;79.15
35507;BME280;36461;52.018;21.036;2023-03-25T09:28:29;99146.16;;;12.98;78.66
35507;BME280;36461;52.018;21.036;2023-03-25T09:30:57;99142.76;;;13.08;78.47
35507;BME280;36461;52.018;21.036;2023-03-25T09:33:25;99138.77;;;13.21;78.11
35507;BME280;36461;52.018;21.036;2023-03-25T09:35:54;99145.71;;;13.33;77.68
35507;BME280;36461;52.018;21.036;2023-03-25T09:38:23;99145.19;;;13.39;76.83
35507;BME280;36461;52.018;21.036;2023-03-25T09:40:51;99141.41;;;13.43;76.21
35507;BME280;36461;52.018;21.036;2023-03-25T09:44:04;99142.05;;;13.50;75.96
35507;BME280;36461;52.018;21.036;2023-03-25T09:46:37;99138.63;;;13.68;75.85
35507;BME280;36461;52.018;21.036;2023-03-25T09:49:19;99136.30;;;13.79;75.54
35507;BME280;36461;52.018;21.036;2023-03-25T09:51:52;99130.45;;;13.92;75.60
35507;BME280;36461;52.018;21.036;2023-03-25T09:54:28;99127.08;;;14.03;75.33
35507;BME280;36461;52.018;21.036;2023-03-25T09:57:03;99130.19;;;14.17;75.11
35507;BME280;36461;52.018;21.036;2023-03-25T09:59:44;99124.68;;;14.31;74.74
35507;BME280;36461;52.018;21.036;2023-03-25T10:13:26;99120.29;;;15.20;71.71
35507;BME280;36461;52.018;21.036;2023-03-25T10:19:12;99126.33;;;15.09;71.04
35507;BME280;36461;52.018;21.036;2023-03-25T10:22:05;99126.23;;;15.03;70.58
35507;BME280;36461;52.018;21.036;2023-03-25T10:24:52;99124.34;;;15.10;70.64
35507;BME280;36461;52.018;21.036;2023-03-25T10:30:22;99115.05;;;15.35;70.01
35507;BME280;36461;52.018;21.036;2023-03-25T10:32:55;99109.30;;;15.57;69.42
35507;BME280;36461;52.018;21.036;2023-03-25T10:35:34;99109.04;;;15.68;68.50
35507;BME280;36461;52.018;21.036;2023-03-25T10:38:30;99102.20;;;15.75;68.59
35507;BME280;36461;52.018;21.036;2023-03-25T10:41:15;99108.63;;;15.75;67.61
35507;BME280;36461;52.018;21.036;2023-03-25T10:43:49;99110.47;;;15.63;66.88
35507;BME280;36461;52.018;21.036;2023-03-25T10:49:18;99105.33;;;15.27;64.68
35507;BME280;36461;52.018;21.036;2023-03-25T10:51:50;99102.12;;;15.14;64.77
35507;BME280;36461;52.018;21.036;2023-03-25T10:54:29;99101.92;;;14.97;64.63
35507;BME280;36461;52.018;21.036;2023-03-25T10:57:02;99097.69;;;14.83;64.81
35507;BME280;36461;52.018;21.036;2023-03-25T10:59:37;99091.81;;;14.80;64.87
35507;BME280;36461;52.018;21.036;2023-03-25T11:02:19;99090.95;;;14.84;65.40
35507;BME280;36461;52.018;21.036;2023-03-25T11:04:52;99092.30;;;14.92;65.45
35507;BME280;36461;52.018;21.036;2023-03-25T11:07:28;99090.38;;;14.95;64.90
35507;BME280;36461;52.018;21.036;2023-03-25T11:10:14;99080.99;;;15.02;65.05
35507;BME280;36461;52.018;21.036;2023-03-25T11:12:43;99079.30;;;15.19;64.94
35507;BME280;36461;52.018;21.036;2023-03-25T11:15:19;99080.54;;;15.31;64.58
35507;BME280;36461;52.018;21.036;2023-03-25T11:18:04;99075.31;;;15.35;63.90
35507;BME280;36461;52.018;21.036;2023-03-25T11:20:44;99070.25;;;15.33;64.20
35507;BME280;36461;52.018;21.036;2023-03-25T11:23:30;99070.27;;;15.35;64.13
35507;BME280;36461;52.018;21.036;2023-03-25T11:26:11;99059.03;;;15.31;63.42
35507;BME280;36461;52.018;21.036;2023-03-25T11:28:45;99050.02;;;15.40;63.55
35507;BME280;36461;52.018;21.036;2023-03-25T11:34:03;99045.88;;;15.66;63.17
35507;BME280;36461;52.018;21.036;2023-03-25T11:37:20;99040.29;;;15.73;62.86
35507;BME280;36461;52.018;21.036;2023-03-25T11:39:32;99036.45;;;15.77;62.69
35507;BME280;36461;52.018;21.036;2023-03-25T11:42:19;99031.00;;;15.83;62.38
35507;BME280;36461;52.018;21.036;2023-03-25T11:44:54;99024.00;;;16.04;61.81
35507;BME280;36461;52.018;21.036;2023-03-25T11:47:38;99021.77;;;16.22;61.49
35507;BME280;36461;52.018;21.036;2023-03-25T11:50:19;99017.99;;;16.30;60.63
35507;BME280;36461;52.018;21.036;2023-03-25T11:52:50;99016.05;;;16.41;60.59
35507;BME280;36461;52.018;21.036;2023-03-25T11:55:28;99021.01;;;16.56;60.55
35507;BME280;36461;52.018;21.036;2023-03-25T11:57:59;99019.88;;;16.62;60.24
35507;BME280;36461;52.018;21.036;2023-03-25T12:00:38;99017.55;;;16.67;60.28
35507;BME280;36461;52.018;21.036;2023-03-25T12:05:40;99014.76;;;16.67;59.09
35507;BME280;36461;52.018;21.036;2023-03-25T12:10:53;99006.46;;;16.61;58.71
35507;BME280;36461;52.018;21.036;2023-03-25T12:13:48;99007.84;;;16.50;58.82
35507;BME280;36461;52.018;21.036;2023-03-25T12:19:15;99007.44;;;16.13;58.11
35507;BME280;36461;52.018;21.036;2023-03-25T12:22:03;99005.91;;;15.85;57.82
35507;BME280;36461;52.018;21.036;2023-03-25T12:30:32;99012.70;;;15.09;57.47
35507;BME280;36461;52.018;21.036;2023-03-25T12:33:32;99018.19;;;14.99;57.82
35507;BME280;36461;52.018;21.036;2023-03-25T12:36:22;99016.69;;;14.88;58.50
35507;BME280;36461;52.018;21.036;2023-03-25T12:39:14;99019.12;;;14.76;58.87
35507;BME280;36461;52.018;21.036;2023-03-25T12:42:26;99017.79;;;14.68;59.98
35507;BME280;36461;52.018;21.036;2023-03-25T12:56:46;99021.38;;;14.71;64.02
35507;BME280;36461;52.018;21.036;2023-03-25T12:59:40;99018.80;;;14.85;64.60
35507;BME280;36461;52.018;21.036;2023-03-25T13:05:26;99012.76;;;15.25;64.73
35507;BME280;36461;52.018;21.036;2023-03-25T13:08:15;99005.92;;;15.45;64.87
35507;BME280;36461;52.018;21.036;2023-03-25T13:10:54;98992.27;;;15.55;64.71
35507;BME280;36461;52.018;21.036;2023-03-25T13:13:25;98983.77;;;15.57;64.56
35507;BME280;36461;52.018;21.036;2023-03-25T13:16:13;98990.63;;;15.58;64.76
35507;BME280;36461;52.018;21.036;2023-03-25T13:21:20;98981.81;;;15.62;63.78
35507;BME280;36461;52.018;21.036;2023-03-25T13:23:54;98982.11;;;15.58;63.94
35507;BME280;36461;52.018;21.036;2023-03-25T13:26:26;98990.36;;;15.41;63.43
35507;BME280;36461;52.018;21.036;2023-03-25T13:29:01;98991.27;;;15.19;63.56
35507;BME280;36461;52.018;21.036;2023-03-25T13:31:35;98997.04;;;14.90;63.34
35507;BME280;36461;52.018;21.036;2023-03-25T13:42:50;98995.16;;;13.92;65.90
35507;BME280;36461;52.018;21.036;2023-03-25T13:45:24;98985.30;;;13.96;66.20
35507;BME280;36461;52.018;21.036;2023-03-25T13:50:59;98955.98;;;14.30;67.10
35507;BME280;36461;52.018;21.036;2023-03-25T13:53:42;98945.95;;;14.29;66.84
35507;BME280;36461;52.018;21.036;2023-03-25T13:59:22;98937.34;;;14.38;66.59
35507;BME280;36461;52.018;21.036;2023-03-25T14:08:16;98950.45;;;14.91;65.51
35507;BME280;36461;52.018;21.036;2023-03-25T14:10:49;98955.52;;;14.76;64.21
35507;BME280;36461;52.018;21.036;2023-03-25T14:13:32;98961.02;;;14.74;64.29
35507;BME280;36461;52.018;21.036;2023-03-25T14:16:10;98965.36;;;14.70;63.56
35507;BME280;36461;52.018;21.036;2023-03-25T14:18:52;98964.04;;;14.72;63.10
35507;BME280;36461;52.018;21.036;2023-03-25T14:21:31;98959.96;;;14.62;62.46
35507;BME280;36461;52.018;21.036;2023-03-25T14:24:09;98963.86;;;14.49;62.30
35507;BME280;36461;52.018;21.036;2023-03-25T14:27:00;98967.22;;;14.41;62.22
35507;BME280;36461;52.018;21.036;2023-03-25T14:29:41;98971.19;;;14.27;62.10
35507;BME280;36461;52.018;21.036;2023-03-25T14:34:46;98979.80;;;14.15;62.01
35507;BME280;36461;52.018;21.036;2023-03-25T14:43:25;98979.79;;;13.90;62.15
35507;BME280;36461;52.018;21.036;2023-03-25T14:48:51;98976.86;;;14.02;62.36
35507;BME280;36461;52.018;21.036;2023-03-25T14:57:15;98984.02;;;14.37;62.41
35507;BME280;36461;52.018;21.036;2023-03-25T14:59:53;98987.70;;;14.39;62.35
35507;BME280;36461;52.018;21.036;2023-03-25T15:02:29;98988.28;;;14.39;62.20
35507;BME280;36461;52.018;21.036;2023-03-25T15:05:02;98992.94;;;14.39;62.13
35507;BME280;36461;52.018;21.036;2023-03-25T15:07:47;99002.41;;;14.31;62.12
35507;BME280;36461;52.018;21.036;2023-03-25T15:10:28;99035.69;;;14.17;62.02
35507;BME280;36461;52.018;21.036;2023-03-25T15:13:08;99049.69;;;13.77;60.27
35507;BME280;36461;52.018;21.036;2023-03-25T15:21:02;99067.33;;;12.64;59.08
35507;BME280;36461;52.018;21.036;2023-03-25T15:24:04;99072.52;;;12.41;59.86
35507;BME280;36461;52.018;21.036;2023-03-25T15:26:38;99076.02;;;12.15;60.11
35507;BME280;36461;52.018;21.036;2023-03-25T15:32:25;99087.23;;;11.74;62.45
35507;BME280;36461;52.018;21.036;2023-03-25T15:41:04;99087.98;;;10.79;66.59
35507;BME280;36461;52.018;21.036;2023-03-25T15:49:42;99067.10;;;10.35;69.37
35507;BME280;36461;52.018;21.036;2023-03-25T15:54:54;99038.98;;;10.23;70.36
35507;BME280;36461;52.018;21.036;2023-03-25T16:00:11;99023.98;;;10.16;71.20
35507;BME280;36461;52.018;21.036;2023-03-25T16:02:47;99028.76;;;10.24;71.89
35507;BME280;36461;52.018;21.036;2023-03-25T16:05:18;99022.42;;;10.32;72.47
35507;BME280;36461;52.018;21.036;2023-03-25T16:07:47;99022.19;;;10.38;72.57
35507;BME280;36461;52.018;21.036;2023-03-25T16:10:34;99022.79;;;10.43;73.05
35507;BME280;36461;52.018;21.036;2023-03-25T16:13:13;99020.11;;;10.44;73.45
35507;BME280;36461;52.018;21.036;2023-03-25T16:15:54;99019.82;;;10.47;73.58
35507;BME280;36461;52.018;21.036;2023-03-25T16:18:24;99021.63;;;10.45;73.82
35507;BME280;36461;52.018;21.036;2023-03-25T16:20:55;99019.85;;;10.39;73.72
35507;BME280;36461;52.018;21.036;2023-03-25T16:23:25;99019.69;;;10.32;73.91